EDT,Max TemperatureF,Mean TemperatureF,Min TemperatureF,Max Dew PointF,MeanDew PointF,Min DewpointF,Max Humidity, Mean Humidity, Min Humidity, Max Sea Level PressureIn, Mean Sea Level PressureIn, Min Sea Level PressureIn, Max VisibilityMiles, Mean VisibilityMiles, Min VisibilityMiles, Max Wind SpeedMPH, Mean Wind SpeedMPH, Max Gust SpeedMPH,PrecipitationIn, CloudCover, Events, WindDirDegrees
2012-3-1,77,70,62,66,64,63,100,89,65,30.10,30.05,29.98,10,10,8,17,7,,0.00,5,,227
2012-3-2,82,72,62,64,63,52,100,86,35,30.06,29.98,29.91,10,9,5,14,3,17,0.00,5,,213
2012-3-3,84,75,66,68,66,63,100,84,54,29.91,29.81,29.69,10,9,6,30,7,40,0.00,3,,198
2012-3-4,75,54,32,68,43,23,100,78,22,30.23,29.92,29.68,10,8,2,30,13,38,0.85,4,Rain-Thunderstorm,306
2012-3-5,75,52,30,39,34,28,100,73,22,30.40,30.29,30.23,10,10,10,16,3,26,0.00,0,,294
2012-3-6,68,52,37,54,41,28,88,67,38,30.51,30.45,30.40,10,10,10,23,4,23,0.00,2,,38
2012-3-7,73,62,51,55,53,50,100,72,50,30.49,30.42,30.36,10,10,5,17,3,25,0.00,5,,98
2012-3-8,80,64,48,63,56,48,100,87,48,30.35,30.28,30.19,10,7,1,14,2,,0.00,1,,118
2012-3-9,82,68,53,66,60,54,100,86,51,30.23,30.18,30.10,10,7,0,12,2,18,0.00,2,Fog-Rain,298
2012-3-10,66,62,59,61,57,50,94,82,56,30.34,30.26,30.18,10,10,7,17,6,26,0.00,6,,29
2012-3-11,73,66,59,61,58,54,100,80,60,30.39,30.34,30.29,10,8,5,21,6,28,0.00,4,,59
2012-3-12,75,68,62,59,56,54,82,70,53,30.36,30.32,30.26,10,10,10,15,2,,0.00,3,,103
2012-3-13,78,64,50,61,55,48,100,84,50,30.30,30.26,30.19,10,10,5,13,1,,0.00,1,,97
2012-3-14,82,66,51,66,58,52,100,90,45,30.29,30.23,30.16,10,8,1,14,1,21,0.00,1,Rain-Thunderstorm,62
2012-3-15,80,65,50,66,57,50,100,91,48,30.31,30.25,30.20,10,7,0,15,1,,0.00,1,Fog,79
2012-3-16,82,66,50,64,57,50,100,88,32,30.28,30.23,30.15,10,5,0,12,1,,0.00,4,Fog,112
2012-3-17,82,66,51,64,57,52,100,90,42,30.27,30.22,30.16,10,5,0,9,1,,0.00,1,Fog-Thunderstorm,142
2012-3-18,82,65,48,64,54,48,100,89,37,30.30,30.23,30.17,10,7,1,12,1,,0.00,0,,90
2012-3-19,82,66,50,64,57,50,100,88,45,30.23,30.18,30.11,10,7,1,9,1,,0.00,0,,118
2012-3-20,80,66,53,64,60,54,100,85,48,30.19,30.13,30.09,10,8,0,13,2,,0.00,2,Fog,91
2012-3-21,80,66,53,68,61,54,100,93,58,30.20,30.15,30.12,10,7,0,16,2,,0.00,1,Fog,108
2012-3-22,82,70,57,68,63,57,100,88,48,30.22,30.17,30.10,10,6,0,15,2,,0.00,1,Fog,123
2012-3-23,84,70,57,68,63,57,100,91,48,30.16,30.09,29.99,10,7,0,15,1,33,0.00,2,Fog-Thunderstorm,211
2012-3-24,80,68,57,70,63,57,100,95,61,30.04,29.96,29.88,10,5,0,15,2,,0.00,3,Fog-Rain,217
2012-3-25,77,64,50,66,57,45,100,82,34,29.91,29.87,29.80,10,10,5,18,7,29,0.00,2,,255
2012-3-26,80,63,46,57,51,46,100,78,37,30.05,29.95,29.90,10,10,10,13,1,17,0.00,0,,11
2012-3-27,80,63,46,63,55,46,100,87,37,30.23,30.14,30.05,10,6,1,17,2,,0.00,1,,48
2012-3-28,82,68,53,64,58,54,100,88,42,30.24,30.16,30.08,10,6,0,8,1,,0.00,4,Fog,161
2012-3-29,84,68,53,64,58,54,100,82,35,30.09,30.04,29.96,10,8,0,10,1,,0.00,0,Fog,263
2012-3-30,84,68,51,64,58,52,100,80,40,30.08,30.01,29.95,10,9,5,12,1,,0.00,1,,210
2012-3-31,75,66,57,68,62,57,100,95,73,29.99,29.93,29.82,10,7,0,21,2,,0.00,4,Fog-Rain-Thunderstorm,225